sensor_id;sensor_type;location;lat;lon;timestamp;P1;durP1;ratioP1;P2;durP2;ratioP2
62071;SDS011;48031;48.542;13.232;2024-02-26T00:01:19;8.88;;;4.32;;
62071;SDS011;48031;48.542;13.232;2024-02-26T00:05:21;9.05;;;5.40;;
62071;SDS011;48031;48.542;13.232;2024-02-26T00:09:22;10.48;;;5.20;;
62071;SDS011;48031;48.542;13.232;2024-02-26T00:13:26;10.07;;;5.25;;
62071;SDS011;48031;48.542;13.232;2024-02-26T00:17:28;7.70;;;3.55;;
62071;SDS011;48031;48.542;13.232;2024-02-26T00:21:30;11.35;;;6.45;;
62071;SDS011;48031;48.542;13.232;2024-02-26T00:25:31;10.88;;;5.03;;
62071;SDS011;48031;48.542;13.232;2024-02-26T00:29:33;7.70;;;3.70;;
62071;SDS011;48031;48.542;13.232;2024-02-26T00:33:35;7.28;;;3.60;;
62071;SDS011;48031;48.542;13.232;2024-02-26T00:37:37;7.60;;;4.18;;
62071;SDS011;48031;48.542;13.232;2024-02-26T00:41:42;9.80;;;4.20;;
62071;SDS011;48031;48.542;13.232;2024-02-26T00:45:44;9.00;;;4.25;;
62071;SDS011;48031;48.542;13.232;2024-02-26T00:49:48;12.85;;;7.00;;
62071;SDS011;48031;48.542;13.232;2024-02-26T00:53:50;9.82;;;5.68;;
62071;SDS011;48031;48.542;13.232;2024-02-26T00:57:51;16.40;;;6.90;;
62071;SDS011;48031;48.542;13.232;2024-02-26T01:01:54;7.93;;;4.90;;
62071;SDS011;48031;48.542;13.232;2024-02-26T01:05:56;4.40;;;2.75;;
62071;SDS011;48031;48.542;13.232;2024-02-26T01:10:00;9.13;;;5.35;;
62071;SDS011;48031;48.542;13.232;2024-02-26T01:14:02;10.00;;;5.07;;
62071;SDS011;48031;48.542;13.232;2024-02-26T01:18:05;6.68;;;3.88;;
62071;SDS011;48031;48.542;13.232;2024-02-26T01:22:07;8.20;;;4.93;;
62071;SDS011;48031;48.542;13.232;2024-02-26T01:26:09;7.15;;;4.28;;
62071;SDS011;48031;48.542;13.232;2024-02-26T01:30:12;10.80;;;5.75;;
62071;SDS011;48031;48.542;13.232;2024-02-26T01:34:14;7.53;;;4.57;;
62071;SDS011;48031;48.542;13.232;2024-02-26T01:38:16;17.90;;;9.32;;
62071;SDS011;48031;48.542;13.232;2024-02-26T01:42:18;12.70;;;6.43;;
62071;SDS011;48031;48.542;13.232;2024-02-26T01:46:19;9.13;;;4.85;;
62071;SDS011;48031;48.542;13.232;2024-02-26T01:50:22;13.93;;;6.53;;
62071;SDS011;48031;48.542;13.232;2024-02-26T01:54:24;15.98;;;7.15;;
62071;SDS011;48031;48.542;13.232;2024-02-26T01:58:26;12.45;;;6.43;;
62071;SDS011;48031;48.542;13.232;2024-02-26T02:02:29;12.90;;;6.82;;
62071;SDS011;48031;48.542;13.232;2024-02-26T02:06:31;8.93;;;4.43;;
62071;SDS011;48031;48.542;13.232;2024-02-26T02:10:34;16.23;;;8.25;;
62071;SDS011;48031;48.542;13.232;2024-02-26T02:14:37;8.20;;;3.70;;
62071;SDS011;48031;48.542;13.232;2024-02-26T02:18:39;13.02;;;6.53;;
62071;SDS011;48031;48.542;13.232;2024-02-26T02:22:41;8.10;;;4.75;;
62071;SDS011;48031;48.542;13.232;2024-02-26T02:26:43;15.20;;;7.35;;
62071;SDS011;48031;48.542;13.232;2024-02-26T02:30:45;10.27;;;5.15;;
62071;SDS011;48031;48.542;13.232;2024-02-26T02:34:47;10.00;;;4.57;;
62071;SDS011;48031;48.542;13.232;2024-02-26T02:38:50;7.13;;;3.17;;
62071;SDS011;48031;48.542;13.232;2024-02-26T02:42:52;7.75;;;3.83;;
62071;SDS011;48031;48.542;13.232;2024-02-26T02:46:53;11.23;;;5.13;;
62071;SDS011;48031;48.542;13.232;2024-02-26T02:50:56;16.90;;;7.63;;
62071;SDS011;48031;48.542;13.232;2024-02-26T02:54:58;12.93;;;5.70;;
62071;SDS011;48031;48.542;13.232;2024-02-26T02:59:00;12.05;;;5.85;;
62071;SDS011;48031;48.542;13.232;2024-02-26T03:03:01;12.82;;;6.43;;
62071;SDS011;48031;48.542;13.232;2024-02-26T03:07:03;9.68;;;5.00;;
62071;SDS011;48031;48.542;13.232;2024-02-26T03:11:05;4.35;;;2.75;;
62071;SDS011;48031;48.542;13.232;2024-02-26T03:15:08;11.38;;;4.25;;
62071;SDS011;48031;48.542;13.232;2024-02-26T03:19:10;8.35;;;4.28;;
62071;SDS011;48031;48.542;13.232;2024-02-26T03:23:12;5.30;;;2.92;;
62071;SDS011;48031;48.542;13.232;2024-02-26T03:27:17;7.97;;;4.03;;
62071;SDS011;48031;48.542;13.232;2024-02-26T03:31:19;9.73;;;4.93;;
62071;SDS011;48031;48.542;13.232;2024-02-26T03:35:23;6.03;;;3.03;;
62071;SDS011;48031;48.542;13.232;2024-02-26T03:39:25;6.43;;;3.17;;
62071;SDS011;48031;48.542;13.232;2024-02-26T03:43:26;8.65;;;4.57;;
62071;SDS011;48031;48.542;13.232;2024-02-26T03:47:28;13.95;;;6.70;;
62071;SDS011;48031;48.542;13.232;2024-02-26T03:51:31;9.93;;;4.97;;
62071;SDS011;48031;48.542;13.232;2024-02-26T03:55:34;12.13;;;5.55;;
62071;SDS011;48031;48.542;13.232;2024-02-26T03:59:36;5.82;;;3.47;;
62071;SDS011;48031;48.542;13.232;2024-02-26T04:03:38;16.10;;;7.53;;
62071;SDS011;48031;48.542;13.232;2024-02-26T04:07:40;8.32;;;4.38;;
62071;SDS011;48031;48.542;13.232;2024-02-26T04:11:42;11.00;;;5.97;;
62071;SDS011;48031;48.542;13.232;2024-02-26T04:15:47;7.18;;;4.32;;
62071;SDS011;48031;48.542;13.232;2024-02-26T04:19:49;7.57;;;3.90;;
62071;SDS011;48031;48.542;13.232;2024-02-26T04:23:51;5.97;;;3.63;;
62071;SDS011;48031;48.542;13.232;2024-02-26T04:27:53;8.40;;;4.68;;
62071;SDS011;48031;48.542;13.232;2024-02-26T04:31:55;6.38;;;3.42;;
62071;SDS011;48031;48.542;13.232;2024-02-26T04:35:57;7.68;;;3.85;;
62071;SDS011;48031;48.542;13.232;2024-02-26T04:39:59;8.65;;;4.38;;
62071;SDS011;48031;48.542;13.232;2024-02-26T04:44:01;9.57;;;5.05;;
62071;SDS011;48031;48.542;13.232;2024-02-26T04:48:03;7.60;;;4.32;;
62071;SDS011;48031;48.542;13.232;2024-02-26T04:52:07;9.13;;;4.70;;
62071;SDS011;48031;48.542;13.232;2024-02-26T04:56:09;7.75;;;5.00;;
62071;SDS011;48031;48.542;13.232;2024-02-26T05:00:11;5.95;;;3.58;;
62071;SDS011;48031;48.542;13.232;2024-02-26T05:04:14;6.00;;;3.50;;
62071;SDS011;48031;48.542;13.232;2024-02-26T05:08:16;4.55;;;2.50;;
62071;SDS011;48031;48.542;13.232;2024-02-26T05:12:18;5.90;;;2.90;;
62071;SDS011;48031;48.542;13.232;2024-02-26T05:16:22;4.45;;;2.72;;
62071;SDS011;48031;48.542;13.232;2024-02-26T05:20:26;3.85;;;2.50;;
62071;SDS011;48031;48.542;13.232;2024-02-26T05:24:28;4.28;;;2.38;;
62071;SDS011;48031;48.542;13.232;2024-02-26T05:28:32;5.50;;;3.45;;
62071;SDS011;48031;48.542;13.232;2024-02-26T05:32:34;8.13;;;4.32;;
62071;SDS011;48031;48.542;13.232;2024-02-26T05:36:36;5.50;;;3.08;;
62071;SDS011;48031;48.542;13.232;2024-02-26T05:40:38;6.53;;;2.80;;
62071;SDS011;48031;48.542;13.232;2024-02-26T05:44:40;5.90;;;3.65;;
62071;SDS011;48031;48.542;13.232;2024-02-26T05:48:42;7.47;;;4.07;;
62071;SDS011;48031;48.542;13.232;2024-02-26T05:52:45;4.93;;;2.47;;
62071;SDS011;48031;48.542;13.232;2024-02-26T05:56:47;4.25;;;2.28;;
62071;SDS011;48031;48.542;13.232;2024-02-26T06:00:49;3.97;;;2.90;;
62071;SDS011;48031;48.542;13.232;2024-02-26T06:04:52;2.80;;;2.00;;
62071;SDS011;48031;48.542;13.232;2024-02-26T06:08:54;5.20;;;3.00;;
62071;SDS011;48031;48.542;13.232;2024-02-26T06:12:57;7.50;;;3.72;;
62071;SDS011;48031;48.542;13.232;2024-02-26T06:17:00;7.45;;;3.67;;
62071;SDS011;48031;48.542;13.232;2024-02-26T06:21:02;6.18;;;3.10;;
62071;SDS011;48031;48.542;13.232;2024-02-26T06:25:04;5.90;;;3.70;;
62071;SDS011;48031;48.542;13.232;2024-02-26T06:29:07;3.88;;;2.65;;
62071;SDS011;48031;48.542;13.232;2024-02-26T06:33:08;3.50;;;2.92;;
62071;SDS011;48031;48.542;13.232;2024-02-26T06:37:11;5.60;;;3.58;;
62071;SDS011;48031;48.542;13.232;2024-02-26T06:41:13;4.47;;;2.58;;
62071;SDS011;48031;48.542;13.232;2024-02-26T06:45:15;5.68;;;3.22;;
62071;SDS011;48031;48.542;13.232;2024-02-26T06:49:17;5.80;;;3.75;;
62071;SDS011;48031;48.542;13.232;2024-02-26T06:53:19;5.03;;;2.90;;
62071;SDS011;48031;48.542;13.232;2024-02-26T06:57:21;4.82;;;3.28;;
62071;SDS011;48031;48.542;13.232;2024-02-26T07:01:23;7.88;;;4.28;;
62071;SDS011;48031;48.542;13.232;2024-02-26T07:05:26;9.02;;;4.63;;
62071;SDS011;48031;48.542;13.232;2024-02-26T07:09:28;6.65;;;3.92;;
62071;SDS011;48031;48.542;13.232;2024-02-26T07:13:30;8.48;;;5.10;;
62071;SDS011;48031;48.542;13.232;2024-02-26T07:17:32;9.25;;;4.53;;
62071;SDS011;48031;48.542;13.232;2024-02-26T07:21:35;7.63;;;3.45;;
62071;SDS011;48031;48.542;13.232;2024-02-26T07:25:37;5.28;;;3.78;;
62071;SDS011;48031;48.542;13.232;2024-02-26T07:29:39;9.32;;;4.55;;
62071;SDS011;48031;48.542;13.232;2024-02-26T07:33:41;5.95;;;3.70;;
62071;SDS011;48031;48.542;13.232;2024-02-26T07:37:43;5.40;;;3.55;;
62071;SDS011;48031;48.542;13.232;2024-02-26T07:41:45;8.90;;;5.10;;
62071;SDS011;48031;48.542;13.232;2024-02-26T07:45:51;8.18;;;4.45;;
62071;SDS011;48031;48.542;13.232;2024-02-26T07:49:53;8.70;;;4.43;;
62071;SDS011;48031;48.542;13.232;2024-02-26T07:53:56;8.00;;;5.15;;
62071;SDS011;48031;48.542;13.232;2024-02-26T07:57:57;4.75;;;3.28;;
62071;SDS011;48031;48.542;13.232;2024-02-26T08:01:59;6.18;;;3.45;;
62071;SDS011;48031;48.542;13.232;2024-02-26T08:06:02;6.45;;;4.07;;
62071;SDS011;48031;48.542;13.232;2024-02-26T08:10:04;5.43;;;3.05;;
62071;SDS011;48031;48.542;13.232;2024-02-26T08:14:06;4.95;;;3.25;;
62071;SDS011;48031;48.542;13.232;2024-02-26T08:18:10;6.40;;;3.00;;
62071;SDS011;48031;48.542;13.232;2024-02-26T08:22:12;10.40;;;4.72;;
62071;SDS011;48031;48.542;13.232;2024-02-26T08:26:17;6.10;;;3.63;;
62071;SDS011;48031;48.542;13.232;2024-02-26T08:30:22;6.85;;;3.58;;
62071;SDS011;48031;48.542;13.232;2024-02-26T08:34:23;4.57;;;3.17;;
62071;SDS011;48031;48.542;13.232;2024-02-26T08:38:25;5.45;;;3.78;;
62071;SDS011;48031;48.542;13.232;2024-02-26T08:42:28;5.70;;;3.75;;
62071;SDS011;48031;48.542;13.232;2024-02-26T08:46:30;5.28;;;2.67;;
62071;SDS011;48031;48.542;13.232;2024-02-26T08:50:31;6.82;;;3.38;;
62071;SDS011;48031;48.542;13.232;2024-02-26T08:54:34;4.53;;;3.15;;
62071;SDS011;48031;48.542;13.232;2024-02-26T08:58:36;4.70;;;3.17;;
62071;SDS011;48031;48.542;13.232;2024-02-26T09:02:37;6.35;;;3.75;;
62071;SDS011;48031;48.542;13.232;2024-02-26T09:06:40;4.40;;;2.95;;
62071;SDS011;48031;48.542;13.232;2024-02-26T09:10:41;4.50;;;2.90;;
62071;SDS011;48031;48.542;13.232;2024-02-26T09:14:43;3.08;;;2.15;;
62071;SDS011;48031;48.542;13.232;2024-02-26T09:18:46;9.65;;;2.38;;
62071;SDS011;48031;48.542;13.232;2024-02-26T09:22:49;3.88;;;2.72;;
62071;SDS011;48031;48.542;13.232;2024-02-26T09:26:52;3.55;;;2.67;;
62071;SDS011;48031;48.542;13.232;2024-02-26T09:30:54;5.47;;;2.50;;
62071;SDS011;48031;48.542;13.232;2024-02-26T09:34:56;5.47;;;2.55;;
62071;SDS011;48031;48.542;13.232;2024-02-26T09:38:57;5.10;;;2.67;;
62071;SDS011;48031;48.542;13.232;2024-02-26T09:43:03;4.35;;;2.60;;
62071;SDS011;48031;48.542;13.232;2024-02-26T09:47:06;3.83;;;2.63;;
62071;SDS011;48031;48.542;13.232;2024-02-26T09:51:09;5.88;;;2.20;;
62071;SDS011;48031;48.542;13.232;2024-02-26T09:55:12;7.07;;;3.35;;
62071;SDS011;48031;48.542;13.232;2024-02-26T09:59:15;3.20;;;2.25;;
62071;SDS011;48031;48.542;13.232;2024-02-26T10:03:18;2.58;;;1.83;;
62071;SDS011;48031;48.542;13.232;2024-02-26T10:07:23;5.68;;;2.83;;
62071;SDS011;48031;48.542;13.232;2024-02-26T10:11:25;3.63;;;2.50;;
62071;SDS011;48031;48.542;13.232;2024-02-26T10:15:27;3.13;;;2.60;;
62071;SDS011;48031;48.542;13.232;2024-02-26T10:19:29;3.03;;;1.88;;
62071;SDS011;48031;48.542;13.232;2024-02-26T10:23:34;3.67;;;2.35;;
62071;SDS011;48031;48.542;13.232;2024-02-26T10:27:36;2.88;;;2.10;;
62071;SDS011;48031;48.542;13.232;2024-02-26T10:31:41;3.45;;;1.90;;
62071;SDS011;48031;48.542;13.232;2024-02-26T10:35:46;2.38;;;2.00;;
62071;SDS011;48031;48.542;13.232;2024-02-26T10:39:48;3.60;;;2.10;;
62071;SDS011;48031;48.542;13.232;2024-02-26T10:43:51;2.97;;;1.77;;
62071;SDS011;48031;48.542;13.232;2024-02-26T10:47:53;4.40;;;1.70;;
62071;SDS011;48031;48.542;13.232;2024-02-26T10:51:56;2.85;;;1.80;;
62071;SDS011;48031;48.542;13.232;2024-02-26T10:56:02;4.97;;;1.85;;
62071;SDS011;48031;48.542;13.232;2024-02-26T11:00:05;4.93;;;1.40;;
62071;SDS011;48031;48.542;13.232;2024-02-26T11:04:08;5.15;;;1.38;;
62071;SDS011;48031;48.542;13.232;2024-02-26T11:08:11;1.45;;;1.35;;
62071;SDS011;48031;48.542;13.232;2024-02-26T11:12:13;3.13;;;1.20;;
62071;SDS011;48031;48.542;13.232;2024-02-26T11:16:16;3.25;;;1.95;;
62071;SDS011;48031;48.542;13.232;2024-02-26T11:20:19;2.55;;;1.10;;
62071;SDS011;48031;48.542;13.232;2024-02-26T11:24:21;3.03;;;1.35;;
62071;SDS011;48031;48.542;13.232;2024-02-26T11:28:23;1.23;;;1.05;;
62071;SDS011;48031;48.542;13.232;2024-02-26T11:32:28;3.60;;;1.10;;
62071;SDS011;48031;48.542;13.232;2024-02-26T11:36:32;1.00;;;1.00;;
62071;SDS011;48031;48.542;13.232;2024-02-26T11:40:37;1.48;;;1.27;;
62071;SDS011;48031;48.542;13.232;2024-02-26T11:44:42;7.40;;;1.20;;
62071;SDS011;48031;48.542;13.232;2024-02-26T11:48:44;6.82;;;1.48;;
62071;SDS011;48031;48.542;13.232;2024-02-26T12:01:40;1.95;;;1.40;;
62071;SDS011;48031;48.542;13.232;2024-02-26T12:05:42;4.88;;;1.17;;
62071;SDS011;48031;48.542;13.232;2024-02-26T12:09:45;5.88;;;1.10;;
62071;SDS011;48031;48.542;13.232;2024-02-26T12:13:47;4.28;;;1.67;;
62071;SDS011;48031;48.542;13.232;2024-02-26T12:17:52;3.33;;;1.60;;
62071;SDS011;48031;48.542;13.232;2024-02-26T12:21:56;4.43;;;1.40;;
62071;SDS011;48031;48.542;13.232;2024-02-26T12:26:00;3.30;;;1.42;;
62071;SDS011;48031;48.542;13.232;2024-02-26T12:30:07;3.92;;;1.30;;
62071;SDS011;48031;48.542;13.232;2024-02-26T12:34:10;2.25;;;1.08;;
62071;SDS011;48031;48.542;13.232;2024-02-26T12:38:12;2.10;;;1.25;;
62071;SDS011;48031;48.542;13.232;2024-02-26T12:42:14;5.43;;;1.20;;
62071;SDS011;48031;48.542;13.232;2024-02-26T12:46:16;3.78;;;1.35;;
62071;SDS011;48031;48.542;13.232;2024-02-26T12:50:17;2.45;;;1.35;;
62071;SDS011;48031;48.542;13.232;2024-02-26T12:54:19;3.42;;;1.40;;
62071;SDS011;48031;48.542;13.232;2024-02-26T12:58:22;4.35;;;1.25;;
62071;SDS011;48031;48.542;13.232;2024-02-26T13:02:29;3.60;;;1.35;;
62071;SDS011;48031;48.542;13.232;2024-02-26T13:06:31;2.17;;;1.30;;
62071;SDS011;48031;48.542;13.232;2024-02-26T13:10:36;9.45;;;1.52;;
62071;SDS011;48031;48.542;13.232;2024-02-26T13:14:38;4.15;;;1.50;;
62071;SDS011;48031;48.542;13.232;2024-02-26T13:18:40;4.50;;;1.80;;
62071;SDS011;48031;48.542;13.232;2024-02-26T13:22:42;3.53;;;1.60;;
62071;SDS011;48031;48.542;13.232;2024-02-26T13:26:44;1.40;;;1.30;;
62071;SDS011;48031;48.542;13.232;2024-02-26T13:30:52;3.53;;;1.33;;
62071;SDS011;48031;48.542;13.232;2024-02-26T13:39:09;13.30;;;1.50;;
62071;SDS011;48031;48.542;13.232;2024-02-26T13:43:14;3.70;;;1.40;;
62071;SDS011;48031;48.542;13.232;2024-02-26T13:47:16;1.40;;;1.30;;
62071;SDS011;48031;48.542;13.232;2024-02-26T13:51:19;6.50;;;1.55;;
62071;SDS011;48031;48.542;13.232;2024-02-26T13:55:22;2.38;;;1.30;;
62071;SDS011;48031;48.542;13.232;2024-02-26T13:59:25;2.53;;;1.10;;
62071;SDS011;48031;48.542;13.232;2024-02-26T14:03:27;4.30;;;1.35;;
62071;SDS011;48031;48.542;13.232;2024-02-26T14:07:29;3.42;;;1.17;;
62071;SDS011;48031;48.542;13.232;2024-02-26T14:11:31;8.65;;;1.60;;
62071;SDS011;48031;48.542;13.232;2024-02-26T14:15:33;2.60;;;1.30;;
62071;SDS011;48031;48.542;13.232;2024-02-26T14:19:37;15.50;;;1.88;;
62071;SDS011;48031;48.542;13.232;2024-02-26T14:23:41;4.18;;;1.38;;
62071;SDS011;48031;48.542;13.232;2024-02-26T14:27:46;12.32;;;2.88;;
62071;SDS011;48031;48.542;13.232;2024-02-26T14:31:48;4.13;;;1.30;;
62071;SDS011;48031;48.542;13.232;2024-02-26T14:35:50;3.83;;;1.52;;
62071;SDS011;48031;48.542;13.232;2024-02-26T14:39:52;5.25;;;1.50;;
62071;SDS011;48031;48.542;13.232;2024-02-26T14:43:54;6.65;;;1.48;;
62071;SDS011;48031;48.542;13.232;2024-02-26T14:47:56;14.60;;;1.73;;
62071;SDS011;48031;48.542;13.232;2024-02-26T14:51:58;9.48;;;2.35;;
62071;SDS011;48031;48.542;13.232;2024-02-26T14:56:01;10.93;;;1.83;;
62071;SDS011;48031;48.542;13.232;2024-02-26T15:00:04;16.55;;;1.95;;
62071;SDS011;48031;48.542;13.232;2024-02-26T15:04:07;3.50;;;1.27;;
62071;SDS011;48031;48.542;13.232;2024-02-26T15:08:09;1.67;;;1.27;;
62071;SDS011;48031;48.542;13.232;2024-02-26T15:12:12;3.15;;;1.67;;
62071;SDS011;48031;48.542;13.232;2024-02-26T15:16:18;2.15;;;1.15;;
62071;SDS011;48031;48.542;13.232;2024-02-26T15:20:23;5.88;;;1.30;;
62071;SDS011;48031;48.542;13.232;2024-02-26T15:24:26;7.47;;;1.50;;
62071;SDS011;48031;48.542;13.232;2024-02-26T15:28:28;10.13;;;1.60;;
62071;SDS011;48031;48.542;13.232;2024-02-26T15:32:30;10.50;;;1.83;;
62071;SDS011;48031;48.542;13.232;2024-02-26T15:36:33;4.85;;;1.38;;
62071;SDS011;48031;48.542;13.232;2024-02-26T15:40:35;3.55;;;1.58;;
62071;SDS011;48031;48.542;13.232;2024-02-26T15:44:37;3.90;;;1.55;;
62071;SDS011;48031;48.542;13.232;2024-02-26T15:48:38;5.93;;;1.50;;
62071;SDS011;48031;48.542;13.232;2024-02-26T15:52:40;7.03;;;1.30;;
62071;SDS011;48031;48.542;13.232;2024-02-26T15:56:42;1.95;;;1.10;;
62071;SDS011;48031;48.542;13.232;2024-02-26T16:00:46;3.72;;;1.45;;
62071;SDS011;48031;48.542;13.232;2024-02-26T16:04:48;1.75;;;1.40;;
62071;SDS011;48031;48.542;13.232;2024-02-26T16:08:50;2.05;;;1.58;;
62071;SDS011;48031;48.542;13.232;2024-02-26T16:12:54;2.50;;;1.58;;
62071;SDS011;48031;48.542;13.232;2024-02-26T16:17:03;1.95;;;1.30;;
62071;SDS011;48031;48.542;13.232;2024-02-26T16:21:07;3.25;;;1.80;;
62071;SDS011;48031;48.542;13.232;2024-02-26T16:25:10;2.13;;;1.60;;
62071;SDS011;48031;48.542;13.232;2024-02-26T16:29:12;2.25;;;1.40;;
62071;SDS011;48031;48.542;13.232;2024-02-26T16:33:14;2.00;;;1.38;;
62071;SDS011;48031;48.542;13.232;2024-02-26T16:37:16;2.60;;;1.70;;
62071;SDS011;48031;48.542;13.232;2024-02-26T16:41:18;2.15;;;1.45;;
62071;SDS011;48031;48.542;13.232;2024-02-26T16:45:20;5.72;;;2.35;;
62071;SDS011;48031;48.542;13.232;2024-02-26T16:49:22;2.35;;;1.50;;
62071;SDS011;48031;48.542;13.232;2024-02-26T16:53:24;1.30;;;1.20;;
62071;SDS011;48031;48.542;13.232;2024-02-26T16:57:25;1.98;;;1.40;;
62071;SDS011;48031;48.542;13.232;2024-02-26T17:01:27;1.73;;;1.35;;
62071;SDS011;48031;48.542;13.232;2024-02-26T17:05:29;1.38;;;1.20;;
62071;SDS011;48031;48.542;13.232;2024-02-26T17:09:31;1.92;;;1.40;;
62071;SDS011;48031;48.542;13.232;2024-02-26T17:13:34;1.50;;;1.38;;
62071;SDS011;48031;48.542;13.232;2024-02-26T17:17:36;1.33;;;1.23;;
62071;SDS011;48031;48.542;13.232;2024-02-26T17:21:38;2.45;;;1.40;;
62071;SDS011;48031;48.542;13.232;2024-02-26T17:25:40;3.95;;;2.20;;
62071;SDS011;48031;48.542;13.232;2024-02-26T17:29:42;3.45;;;2.28;;
62071;SDS011;48031;48.542;13.232;2024-02-26T17:33:44;3.20;;;2.05;;
62071;SDS011;48031;48.542;13.232;2024-02-26T17:37:48;2.50;;;2.03;;
62071;SDS011;48031;48.542;13.232;2024-02-26T17:41:49;2.95;;;1.60;;
62071;SDS011;48031;48.542;13.232;2024-02-26T17:45:51;2.03;;;1.67;;
62071;SDS011;48031;48.542;13.232;2024-02-26T17:49:53;2.63;;;2.15;;
62071;SDS011;48031;48.542;13.232;2024-02-26T17:53:55;4.80;;;3.03;;
62071;SDS011;48031;48.542;13.232;2024-02-26T17:57:57;5.22;;;2.80;;
62071;SDS011;48031;48.542;13.232;2024-02-26T18:02:00;2.63;;;2.08;;
62071;SDS011;48031;48.542;13.232;2024-02-26T18:06:01;5.32;;;1.90;;
62071;SDS011;48031;48.542;13.232;2024-02-26T18:10:07;4.18;;;2.80;;
62071;SDS011;48031;48.542;13.232;2024-02-26T18:14:13;2.40;;;1.63;;
62071;SDS011;48031;48.542;13.232;2024-02-26T18:18:14;2.65;;;1.70;;
62071;SDS011;48031;48.542;13.232;2024-02-26T18:22:16;4.18;;;2.25;;
62071;SDS011;48031;48.542;13.232;2024-02-26T18:26:18;2.97;;;2.10;;
62071;SDS011;48031;48.542;13.232;2024-02-26T18:30:23;3.17;;;2.30;;
62071;SDS011;48031;48.542;13.232;2024-02-26T18:34:24;3.28;;;2.50;;
62071;SDS011;48031;48.542;13.232;2024-02-26T18:38:27;2.47;;;1.77;;
62071;SDS011;48031;48.542;13.232;2024-02-26T18:42:29;8.95;;;2.60;;
62071;SDS011;48031;48.542;13.232;2024-02-26T18:46:31;4.68;;;2.20;;
62071;SDS011;48031;48.542;13.232;2024-02-26T18:50:33;1.88;;;1.50;;
62071;SDS011;48031;48.542;13.232;2024-02-26T18:54:34;1.77;;;1.65;;
62071;SDS011;48031;48.542;13.232;2024-02-26T18:58:38;1.85;;;1.48;;
62071;SDS011;48031;48.542;13.232;2024-02-26T19:02:40;1.65;;;1.55;;
62071;SDS011;48031;48.542;13.232;2024-02-26T19:06:44;3.17;;;2.30;;
62071;SDS011;48031;48.542;13.232;2024-02-26T19:10:45;2.88;;;1.65;;
62071;SDS011;48031;48.542;13.232;2024-02-26T19:14:47;5.30;;;2.28;;
62071;SDS011;48031;48.542;13.232;2024-02-26T19:18:51;3.47;;;2.20;;
62071;SDS011;48031;48.542;13.232;2024-02-26T19:22:53;4.88;;;1.90;;
62071;SDS011;48031;48.542;13.232;2024-02-26T19:26:55;8.73;;;2.13;;
62071;SDS011;48031;48.542;13.232;2024-02-26T19:30:57;2.20;;;1.58;;
62071;SDS011;48031;48.542;13.232;2024-02-26T19:34:59;3.47;;;2.70;;
62071;SDS011;48031;48.542;13.232;2024-02-26T19:39:01;5.13;;;3.47;;
62071;SDS011;48031;48.542;13.232;2024-02-26T19:43:03;2.50;;;1.85;;
62071;SDS011;48031;48.542;13.232;2024-02-26T19:47:06;2.90;;;2.03;;
62071;SDS011;48031;48.542;13.232;2024-02-26T19:51:07;4.28;;;2.10;;
62071;SDS011;48031;48.542;13.232;2024-02-26T19:55:12;3.67;;;2.08;;
62071;SDS011;48031;48.542;13.232;2024-02-26T19:59:14;2.78;;;1.95;;
62071;SDS011;48031;48.542;13.232;2024-02-26T20:03:15;3.83;;;2.53;;
62071;SDS011;48031;48.542;13.232;2024-02-26T20:07:18;4.63;;;2.70;;
62071;SDS011;48031;48.542;13.232;2024-02-26T20:11:21;3.67;;;2.50;;
62071;SDS011;48031;48.542;13.232;2024-02-26T20:15:23;11.98;;;2.60;;
62071;SDS011;48031;48.542;13.232;2024-02-26T20:19:25;3.10;;;2.40;;
62071;SDS011;48031;48.542;13.232;2024-02-26T20:23:27;4.07;;;2.42;;
62071;SDS011;48031;48.542;13.232;2024-02-26T20:27:29;4.30;;;2.80;;
62071;SDS011;48031;48.542;13.232;2024-02-26T20:31:31;8.50;;;2.30;;
62071;SDS011;48031;48.542;13.232;2024-02-26T20:35:33;3.50;;;2.15;;
62071;SDS011;48031;48.542;13.232;2024-02-26T20:39:35;3.05;;;1.98;;
62071;SDS011;48031;48.542;13.232;2024-02-26T20:43:37;3.42;;;2.42;;
62071;SDS011;48031;48.542;13.232;2024-02-26T20:47:39;7.10;;;2.60;;
62071;SDS011;48031;48.542;13.232;2024-02-26T20:51:41;2.65;;;2.08;;
62071;SDS011;48031;48.542;13.232;2024-02-26T20:55:43;4.25;;;2.53;;
62071;SDS011;48031;48.542;13.232;2024-02-26T20:59:45;3.88;;;2.38;;
62071;SDS011;48031;48.542;13.232;2024-02-26T21:03:47;4.10;;;2.70;;
62071;SDS011;48031;48.542;13.232;2024-02-26T21:07:49;6.32;;;3.72;;
62071;SDS011;48031;48.542;13.232;2024-02-26T21:11:51;3.28;;;2.50;;
62071;SDS011;48031;48.542;13.232;2024-02-26T21:15:56;4.13;;;2.72;;
62071;SDS011;48031;48.542;13.232;2024-02-26T21:19:58;8.45;;;2.15;;
62071;SDS011;48031;48.542;13.232;2024-02-26T21:24:00;6.78;;;3.03;;
62071;SDS011;48031;48.542;13.232;2024-02-26T21:28:04;4.82;;;2.95;;
62071;SDS011;48031;48.542;13.232;2024-02-26T21:32:07;2.63;;;2.03;;
62071;SDS011;48031;48.542;13.232;2024-02-26T21:36:08;3.95;;;2.83;;
62071;SDS011;48031;48.542;13.232;2024-02-26T21:40:11;4.28;;;3.05;;
62071;SDS011;48031;48.542;13.232;2024-02-26T21:44:12;5.25;;;3.35;;
62071;SDS011;48031;48.542;13.232;2024-02-26T21:48:14;4.60;;;2.83;;
62071;SDS011;48031;48.542;13.232;2024-02-26T21:52:17;9.40;;;2.47;;
62071;SDS011;48031;48.542;13.232;2024-02-26T21:56:19;3.75;;;2.72;;
62071;SDS011;48031;48.542;13.232;2024-02-26T22:00:20;2.90;;;2.35;;
62071;SDS011;48031;48.542;13.232;2024-02-26T22:04:22;2.70;;;1.88;;
62071;SDS011;48031;48.542;13.232;2024-02-26T22:08:24;12.25;;;3.78;;
62071;SDS011;48031;48.542;13.232;2024-02-26T22:12:26;11.85;;;4.15;;
62071;SDS011;48031;48.542;13.232;2024-02-26T22:16:28;8.52;;;4.57;;
62071;SDS011;48031;48.542;13.232;2024-02-26T22:20:30;10.15;;;4.47;;
62071;SDS011;48031;48.542;13.232;2024-02-26T22:24:33;5.35;;;3.10;;
62071;SDS011;48031;48.542;13.232;2024-02-26T22:28:37;5.40;;;3.55;;
62071;SDS011;48031;48.542;13.232;2024-02-26T22:32:39;6.25;;;2.50;;
62071;SDS011;48031;48.542;13.232;2024-02-26T22:36:41;5.50;;;2.72;;
62071;SDS011;48031;48.542;13.232;2024-02-26T22:40:43;8.32;;;2.88;;
62071;SDS011;48031;48.542;13.232;2024-02-26T22:44:44;6.10;;;2.25;;
62071;SDS011;48031;48.542;13.232;2024-02-26T22:48:46;3.88;;;2.35;;
62071;SDS011;48031;48.542;13.232;2024-02-26T22:52:48;5.22;;;2.40;;
62071;SDS011;48031;48.542;13.232;2024-02-26T22:56:51;8.50;;;4.13;;
62071;SDS011;48031;48.542;13.232;2024-02-26T23:00:53;7.20;;;2.42;;
62071;SDS011;48031;48.542;13.232;2024-02-26T23:04:55;5.40;;;2.88;;
62071;SDS011;48031;48.542;13.232;2024-02-26T23:08:56;2.08;;;1.70;;
62071;SDS011;48031;48.542;13.232;2024-02-26T23:12:58;4.78;;;3.05;;
62071;SDS011;48031;48.542;13.232;2024-02-26T23:17:00;7.70;;;3.58;;
62071;SDS011;48031;48.542;13.232;2024-02-26T23:21:02;7.72;;;2.63;;
62071;SDS011;48031;48.542;13.232;2024-02-26T23:25:06;2.40;;;2.00;;
62071;SDS011;48031;48.542;13.232;2024-02-26T23:29:08;4.65;;;3.00;;
62071;SDS011;48031;48.542;13.232;2024-02-26T23:33:10;8.20;;;2.90;;
62071;SDS011;48031;48.542;13.232;2024-02-26T23:37:12;4.53;;;2.42;;
62071;SDS011;48031;48.542;13.232;2024-02-26T23:41:14;4.85;;;2.92;;
62071;SDS011;48031;48.542;13.232;2024-02-26T23:45:16;4.75;;;3.10;;
62071;SDS011;48031;48.542;13.232;2024-02-26T23:49:17;6.88;;;3.17;;
62071;SDS011;48031;48.542;13.232;2024-02-26T23:53:20;5.57;;;2.17;;
62071;SDS011;48031;48.542;13.232;2024-02-26T23:57:22;5.20;;;2.42;;
